createdAt,value
2019-06-08T00:01:52.819Z,61.30
2019-06-08T00:04:22.916Z,61.70
2019-06-08T00:06:52.339Z,62.00
2019-06-08T00:09:22.543Z,62.00
2019-06-08T00:11:51.934Z,62.20
2019-06-08T00:14:21.463Z,62.30
2019-06-08T00:16:50.630Z,62.30
2019-06-08T00:19:20.001Z,62.00
2019-06-08T00:21:48.985Z,61.60
2019-06-08T00:24:17.985Z,61.30
2019-06-08T00:26:47.271Z,61.40
2019-06-08T00:29:16.366Z,61.50
2019-06-08T00:31:45.345Z,61.70
2019-06-08T00:34:14.539Z,62.60
2019-06-08T00:36:43.514Z,62.70
2019-06-08T00:39:14.663Z,62.90
2019-06-08T00:41:43.767Z,62.90
2019-06-08T00:44:12.760Z,73.00
2019-06-08T00:46:41.740Z,62.40
2019-06-08T00:49:10.726Z,61.70
2019-06-08T00:51:39.701Z,62.00
2019-06-08T00:54:08.690Z,63.00
2019-06-08T00:56:37.746Z,62.30
2019-06-08T00:59:07.079Z,62.50
2019-06-08T01:01:36.075Z,63.00
2019-06-08T01:04:05.062Z,62.80
2019-06-08T01:06:34.054Z,62.60
2019-06-08T01:09:03.310Z,62.70
2019-06-08T01:11:32.467Z,62.80
2019-06-08T01:14:01.466Z,63.00
2019-06-08T01:16:30.762Z,63.20
2019-06-08T01:19:00.250Z,63.00
2019-06-08T01:21:29.993Z,63.10
2019-06-08T01:23:59.142Z,63.90
2019-06-08T01:26:28.254Z,62.60
2019-06-08T01:28:58.595Z,62.40
2019-06-08T01:31:28.388Z,62.90
2019-06-08T01:33:57.469Z,63.50
2019-06-08T01:36:27.528Z,63.70
2019-06-08T01:38:56.671Z,63.90
2019-06-08T01:41:25.691Z,63.60
2019-06-08T01:43:54.994Z,63.50
2019-06-08T01:46:23.991Z,63.60
2019-06-08T01:48:53.396Z,64.50
2019-06-08T01:51:22.803Z,64.90
2019-06-08T01:53:51.786Z,64.90
2019-06-08T01:56:20.799Z,65.00
2019-06-08T01:58:49.777Z,65.40
2019-06-08T02:01:18.782Z,65.10
2019-06-08T02:03:47.762Z,65.10
2019-06-08T02:06:17.209Z,65.40
2019-06-08T02:08:46.255Z,65.30
2019-06-08T02:11:15.565Z,65.70
2019-06-08T02:13:44.568Z,66.80
2019-06-08T02:16:13.542Z,65.90
2019-06-08T02:18:50.119Z,65.60
2019-06-08T02:21:13.143Z,65.40
2019-06-08T02:23:42.126Z,65.60
2019-06-08T02:26:12.176Z,65.60
2019-06-08T02:28:41.170Z,65.90
2019-06-08T02:31:10.151Z,66.30
2019-06-08T02:33:40.454Z,66.60
2019-06-08T02:36:09.534Z,66.50
2019-06-08T02:38:39.598Z,66.40
2019-06-08T02:41:08.696Z,66.70
2019-06-08T02:43:38.388Z,66.60
2019-06-08T02:46:08.291Z,66.30
2019-06-08T02:48:56.328Z,66.40
2019-06-08T02:51:08.372Z,66.80
2019-06-08T02:53:38.379Z,67.00
2019-06-08T02:56:07.474Z,67.10
2019-06-08T02:58:40.297Z,67.40
2019-06-08T03:01:08.477Z,67.70
2019-06-08T03:03:38.372Z,68.00
2019-06-08T03:06:08.405Z,68.60
2019-06-08T03:08:39.240Z,69.60
2019-06-08T03:11:08.015Z,70.00
2019-06-08T03:13:38.421Z,70.20
2019-06-08T03:16:07.627Z,70.30
2019-06-08T03:18:38.272Z,69.50
2019-06-08T03:21:07.212Z,69.40
2019-06-08T03:23:36.361Z,69.30
2019-06-08T03:26:05.885Z,69.30
2019-06-08T03:28:37.125Z,69.30
2019-06-08T03:31:05.794Z,69.60
2019-06-08T03:33:40.161Z,69.90
2019-06-08T03:36:06.124Z,68.90
2019-06-08T03:38:35.780Z,69.70
2019-06-08T03:41:04.866Z,69.80
2019-06-08T03:43:35.339Z,69.80
2019-06-08T03:46:04.823Z,69.90
2019-06-08T03:48:35.102Z,69.70
2019-06-08T03:51:05.023Z,69.70
2019-06-08T03:53:35.722Z,69.70
2019-06-08T03:56:05.538Z,70.00
2019-06-08T03:58:36.477Z,69.90
2019-06-08T04:01:06.138Z,69.90
2019-06-08T04:03:37.511Z,70.20
2019-06-08T04:06:06.690Z,69.90
2019-06-08T04:08:37.772Z,70.20
2019-06-08T04:11:06.680Z,70.10
2019-06-08T04:13:35.667Z,70.20
2019-06-08T04:16:04.642Z,70.10
2019-06-08T04:18:33.639Z,70.20
2019-06-08T04:21:02.707Z,70.00
2019-06-08T04:23:31.677Z,69.80
2019-06-08T04:26:00.672Z,69.30
2019-06-08T04:28:29.655Z,69.40
2019-06-08T04:30:58.645Z,69.60
2019-06-08T04:33:28.101Z,69.50
2019-06-08T04:35:57.099Z,69.10
2019-06-08T04:38:26.081Z,68.30
2019-06-08T04:40:55.074Z,67.80
2019-06-08T04:43:24.434Z,67.60
2019-06-08T04:45:53.440Z,67.30
2019-06-08T04:48:22.421Z,67.20
2019-06-08T04:50:51.796Z,67.20
2019-06-08T04:53:20.822Z,66.40
2019-06-08T04:55:49.807Z,66.00
2019-06-08T04:58:18.831Z,65.70
2019-06-08T05:00:50.108Z,65.30
2019-06-08T05:03:18.817Z,65.30
2019-06-08T05:05:49.891Z,64.80
2019-06-08T05:08:18.413Z,63.80
2019-06-08T05:10:47.598Z,62.80
2019-06-08T05:13:17.344Z,62.30
2019-06-08T05:15:47.387Z,62.00
2019-06-08T05:18:16.446Z,61.40
2019-06-08T05:20:47.361Z,61.40
2019-06-08T05:23:16.042Z,61.50
2019-06-08T05:25:45.168Z,61.40
2019-06-08T05:28:14.209Z,60.40
2019-06-08T05:30:43.272Z,60.30
2019-06-08T05:33:12.668Z,60.20
2019-06-08T05:35:43.365Z,59.80
2019-06-08T05:38:12.455Z,58.90
2019-06-08T05:40:41.528Z,58.20
2019-06-08T05:43:10.901Z,58.40
2019-06-08T05:45:39.891Z,58.40
2019-06-08T05:48:08.883Z,58.20
2019-06-08T05:50:54.098Z,58.60
2019-06-08T05:53:08.907Z,57.10
2019-06-08T05:55:37.885Z,57.10
2019-06-08T05:58:07.220Z,56.00
2019-06-08T06:00:36.193Z,56.00
2019-06-08T06:03:05.182Z,56.30
2019-06-08T06:05:34.156Z,55.80
2019-06-08T06:08:16.129Z,54.90
2019-06-08T06:10:34.842Z,54.80
2019-06-08T06:13:04.098Z,54.30
2019-06-08T06:15:33.121Z,54.70
2019-06-08T06:18:02.435Z,53.10
2019-06-08T06:20:31.472Z,52.20
2019-06-08T06:23:00.930Z,84.80
2019-06-08T06:25:29.931Z,52.20
2019-06-08T06:27:58.918Z,52.10
2019-06-08T06:30:27.920Z,51.70
2019-06-08T06:32:57.325Z,51.70
2019-06-08T06:35:26.312Z,52.00
2019-06-08T06:37:55.294Z,50.90
2019-06-08T06:40:24.283Z,50.90
2019-06-08T06:42:53.594Z,50.90
2019-06-08T06:45:22.595Z,50.40
2019-06-08T06:47:52.675Z,50.40
2019-06-08T06:50:22.537Z,50.20
2019-06-08T06:52:52.851Z,49.40
2019-06-08T06:55:25.250Z,49.40
2019-06-08T06:57:53.565Z,49.60
2019-06-08T07:00:32.248Z,49.80
2019-06-08T07:03:01.474Z,48.90
2019-06-08T07:05:31.534Z,49.00
2019-06-08T07:08:00.512Z,48.70
2019-06-08T07:10:29.831Z,48.40
2019-06-08T07:12:58.828Z,47.40
2019-06-08T07:15:28.392Z,48.00
2019-06-08T07:17:58.622Z,47.20
2019-06-08T07:20:27.730Z,46.00
2019-06-08T07:22:59.001Z,45.90
2019-06-08T07:25:28.211Z,46.40
2019-06-08T07:27:57.198Z,45.50
2019-06-08T07:30:26.211Z,45.50
2019-06-08T07:32:55.586Z,45.00
2019-06-08T07:35:24.578Z,44.80
2019-06-08T07:37:53.758Z,44.70
2019-06-08T07:40:23.141Z,44.50
2019-06-08T07:42:53.385Z,44.00
2019-06-08T07:45:23.036Z,44.10
2019-06-08T07:47:53.954Z,43.90
2019-06-08T07:50:23.038Z,43.60
2019-06-08T07:52:52.885Z,43.60
2019-06-08T07:55:21.959Z,43.40
2019-06-08T07:57:52.312Z,43.40
2019-06-08T08:00:21.260Z,43.60
2019-06-08T08:02:50.272Z,43.60
2019-06-08T08:05:19.231Z,43.60
2019-06-08T08:07:48.385Z,43.50
2019-06-08T08:10:17.519Z,43.30
2019-06-08T08:12:46.649Z,43.70
2019-06-08T08:15:16.063Z,43.30
2019-06-08T08:17:45.449Z,43.00
2019-06-08T08:20:14.908Z,42.80
2019-06-08T08:22:43.906Z,42.60
2019-06-08T08:25:12.899Z,43.00
2019-06-08T08:27:41.878Z,42.60
2019-06-08T08:30:11.239Z,42.10
2019-06-08T08:32:40.218Z,42.60
2019-06-08T08:35:09.240Z,42.00
2019-06-08T08:37:38.312Z,42.00
2019-06-08T08:40:08.774Z,42.00
2019-06-08T08:42:38.588Z,42.00
2019-06-08T08:45:08.690Z,42.10
2019-06-08T08:47:38.679Z,42.20
2019-06-08T08:50:08.308Z,41.10
2019-06-08T08:52:40.515Z,41.50
2019-06-08T08:55:08.420Z,42.00
2019-06-08T08:57:38.572Z,42.10
2019-06-08T09:00:08.672Z,41.70
2019-06-08T09:02:37.887Z,41.70
2019-06-08T09:05:08.666Z,41.60
2019-06-08T09:07:38.509Z,41.90
2019-06-08T09:10:11.354Z,41.40
2019-06-08T09:12:39.723Z,41.80
2019-06-08T09:15:08.980Z,42.20
2019-06-08T09:17:38.816Z,41.90
2019-06-08T09:20:11.049Z,41.80
2019-06-08T09:22:52.564Z,42.00
2019-06-08T09:25:09.351Z,42.10
2019-06-08T09:27:38.503Z,42.00
2019-06-08T09:30:08.297Z,42.20
2019-06-08T09:32:38.190Z,41.70
2019-06-08T09:35:09.387Z,42.20
2019-06-08T09:37:39.070Z,41.80
2019-06-08T09:40:08.063Z,41.80
2019-06-08T09:42:37.324Z,42.00
2019-06-08T09:45:09.015Z,41.90
2019-06-08T09:47:38.116Z,41.80
2019-06-08T09:50:09.269Z,42.40
2019-06-08T09:52:40.912Z,42.20
2019-06-08T09:55:09.253Z,42.20
2019-06-08T09:57:38.979Z,41.80
2019-06-08T10:00:15.310Z,41.00
2019-06-08T10:02:38.767Z,40.10
2019-06-08T10:05:08.831Z,39.50
2019-06-08T10:07:38.869Z,40.20
2019-06-08T10:10:09.786Z,41.10
2019-06-08T10:12:40.935Z,42.00
2019-06-08T10:15:11.158Z,42.60
2019-06-08T10:17:40.134Z,43.50
2019-06-08T10:20:10.064Z,43.10
2019-06-08T10:22:39.314Z,43.20
2019-06-08T10:25:11.038Z,43.70
2019-06-08T10:27:39.315Z,43.70
2019-06-08T10:30:10.078Z,43.50
2019-06-08T10:32:39.996Z,43.10
2019-06-08T10:35:10.429Z,43.70
2019-06-08T10:37:40.126Z,43.00
2019-06-08T10:40:09.181Z,43.20
2019-06-08T10:42:40.229Z,43.30
2019-06-08T10:45:14.250Z,43.70
2019-06-08T10:47:40.659Z,43.70
2019-06-08T10:50:15.119Z,43.70
2019-06-08T10:52:41.220Z,44.10
2019-06-08T10:55:12.158Z,44.70
2019-06-08T10:57:41.172Z,44.20
2019-06-08T11:00:20.173Z,43.40
2019-06-08T11:02:42.673Z,44.30
2019-06-08T11:05:14.172Z,43.50
2019-06-08T11:07:43.414Z,44.90
2019-06-08T11:10:12.772Z,44.80
2019-06-08T11:12:42.391Z,44.90
2019-06-08T11:15:11.829Z,43.80
2019-06-08T11:17:41.384Z,44.70
2019-06-08T11:20:13.124Z,44.20
2019-06-08T11:22:40.974Z,44.10
2019-06-08T11:25:16.018Z,44.20
2019-06-08T11:27:40.899Z,44.20
2019-06-08T11:30:19.691Z,44.10
2019-06-08T11:32:40.475Z,44.50
2019-06-08T11:35:12.321Z,44.50
2019-06-08T11:37:40.961Z,43.40
2019-06-08T11:40:12.364Z,44.40
2019-06-08T11:42:40.844Z,44.30
2019-06-08T11:45:12.696Z,44.40
2019-06-08T11:47:41.803Z,44.00
2019-06-08T11:50:13.200Z,44.90
2019-06-08T11:52:42.025Z,44.30
2019-06-08T11:55:12.891Z,44.60
2019-06-08T11:57:41.612Z,44.80
2019-06-08T12:00:24.262Z,45.60
2019-06-08T12:02:43.530Z,44.50
2019-06-08T12:05:14.224Z,44.20
2019-06-08T12:07:43.330Z,44.00
2019-06-08T12:10:13.812Z,44.00
2019-06-08T12:12:43.309Z,44.30
2019-06-08T12:15:13.677Z,42.80
2019-06-08T12:17:42.887Z,44.10
2019-06-08T12:20:17.057Z,43.90
2019-06-08T12:22:42.830Z,44.00
2019-06-08T12:25:12.207Z,43.40
2019-06-08T12:27:41.667Z,44.30
2019-06-08T12:30:17.361Z,43.60
2019-06-08T12:32:41.255Z,43.40
2019-06-08T12:35:12.138Z,43.20
2019-06-08T12:37:41.386Z,43.40
2019-06-08T12:40:13.291Z,43.60
2019-06-08T12:42:40.986Z,44.00
2019-06-08T12:45:11.147Z,43.70
2019-06-08T12:47:40.287Z,44.10
2019-06-08T12:50:13.088Z,42.60
2019-06-08T12:52:43.017Z,43.30
2019-06-08T12:55:14.452Z,43.30
2019-06-08T12:57:41.866Z,40.80
2019-06-08T13:00:11.916Z,42.30
2019-06-08T13:02:41.629Z,41.60
2019-06-08T13:05:13.742Z,42.00
2019-06-08T13:07:42.658Z,42.80
2019-06-08T13:10:13.058Z,42.30
2019-06-08T13:12:42.562Z,42.40
2019-06-08T13:15:12.876Z,42.90
2019-06-08T13:17:42.046Z,40.80
2019-06-08T13:20:14.871Z,41.60
2019-06-08T13:22:43.848Z,42.30
2019-06-08T13:25:23.905Z,42.80
2019-06-08T13:27:43.799Z,43.50
2019-06-08T13:30:17.259Z,43.10
2019-06-08T13:32:44.125Z,43.00
2019-06-08T13:35:14.347Z,42.90
2019-06-08T13:37:43.357Z,41.80
2019-06-08T13:40:13.165Z,43.10
2019-06-08T13:42:42.302Z,43.40
2019-06-08T13:45:11.444Z,43.00
2019-06-08T13:47:41.408Z,42.50
2019-06-08T13:50:10.990Z,42.00
2019-06-08T13:52:40.546Z,42.30
2019-06-08T13:55:09.526Z,42.80
2019-06-08T13:57:38.505Z,41.70
2019-06-08T14:00:08.376Z,42.70
2019-06-08T14:02:39.688Z,43.00
2019-06-08T14:05:08.234Z,42.70
2019-06-08T14:07:38.070Z,43.00
2019-06-08T14:10:07.298Z,42.30
2019-06-08T14:12:38.453Z,42.30
2019-06-08T14:15:08.541Z,41.90
2019-06-08T14:17:37.965Z,41.70
2019-06-08T14:20:08.033Z,42.00
2019-06-08T14:22:38.853Z,41.70
2019-06-08T14:25:10.450Z,41.60
2019-06-08T14:27:39.023Z,40.80
2019-06-08T14:30:08.535Z,41.50
2019-06-08T14:32:38.052Z,37.80
2019-06-08T14:35:08.827Z,40.30
2019-06-08T14:37:38.135Z,38.80
2019-06-08T14:40:08.822Z,39.20
2019-06-08T14:42:38.369Z,39.20
2019-06-08T14:45:10.569Z,40.00
2019-06-08T14:47:38.089Z,40.20
2019-06-08T14:50:07.977Z,40.60
2019-06-08T14:52:38.189Z,40.80
2019-06-08T14:55:08.021Z,39.80
2019-06-08T14:57:37.567Z,39.20
2019-06-08T15:00:09.696Z,39.70
2019-06-08T15:02:38.795Z,40.30
2019-06-08T15:05:07.958Z,38.90
2019-06-08T15:07:38.864Z,39.70
2019-06-08T15:10:10.060Z,39.10
2019-06-08T15:12:39.028Z,37.80
2019-06-08T15:15:11.046Z,38.80
2019-06-08T15:17:38.626Z,40.10
2019-06-08T15:20:08.824Z,40.50
2019-06-08T15:22:38.857Z,38.90
2019-06-08T15:25:11.092Z,38.80
2019-06-08T15:27:39.439Z,39.00
2019-06-08T15:30:08.430Z,39.00
2019-06-08T15:32:38.708Z,38.90
2019-06-08T15:35:08.338Z,39.00
2019-06-08T15:37:40.794Z,38.40
2019-06-08T15:40:08.267Z,36.50
2019-06-08T15:42:37.253Z,36.50
2019-06-08T15:45:08.354Z,36.20
2019-06-08T15:47:40.593Z,37.40
2019-06-08T15:50:08.855Z,35.90
2019-06-08T15:52:38.382Z,36.30
2019-06-08T15:55:10.870Z,38.00
2019-06-08T15:57:40.982Z,38.20
2019-06-08T16:00:10.095Z,38.30
2019-06-08T16:02:39.342Z,37.70
2019-06-08T16:05:08.333Z,37.10
2019-06-08T16:07:37.323Z,38.20
2019-06-08T16:10:07.787Z,38.00
2019-06-08T16:12:36.840Z,36.80
2019-06-08T16:15:06.434Z,37.00
2019-06-08T16:17:35.597Z,36.00
2019-06-08T16:20:04.898Z,37.80
2019-06-08T16:22:33.987Z,37.50
2019-06-08T16:25:03.651Z,37.40
2019-06-08T16:27:33.855Z,37.60
2019-06-08T16:30:09.104Z,37.50
2019-06-08T16:32:35.357Z,38.00
2019-06-08T16:35:05.321Z,37.90
2019-06-08T16:37:35.707Z,38.10
2019-06-08T16:40:05.667Z,37.00
2019-06-08T16:42:34.652Z,37.50
2019-06-08T16:45:04.912Z,35.60
2019-06-08T16:47:35.186Z,36.00
2019-06-08T16:50:06.999Z,36.50
2019-06-08T16:52:36.690Z,37.80
2019-06-08T16:55:06.265Z,38.10
2019-06-08T16:57:38.291Z,38.00
2019-06-08T17:00:29.989Z,38.00
2019-06-08T17:02:37.131Z,37.00
2019-06-08T17:05:06.843Z,37.70
2019-06-08T17:07:35.835Z,37.60
2019-06-08T17:10:05.913Z,38.50
2019-06-08T17:12:35.393Z,38.40
2019-06-08T17:15:06.062Z,36.80
2019-06-08T17:17:36.374Z,38.00
2019-06-08T17:20:05.537Z,38.80
2019-06-08T17:22:34.648Z,38.60
2019-06-08T17:25:08.104Z,38.90
2019-06-08T17:27:36.780Z,38.00
2019-06-08T17:30:08.587Z,37.80
2019-06-08T17:32:38.482Z,38.50
2019-06-08T17:35:09.146Z,39.00
2019-06-08T17:37:38.225Z,38.80
2019-06-08T17:40:07.152Z,39.30
2019-06-08T17:42:37.463Z,39.50
2019-06-08T17:45:07.220Z,38.80
2019-06-08T17:47:36.525Z,39.20
2019-06-08T17:50:06.337Z,38.60
2019-06-08T17:52:35.826Z,40.50
2019-06-08T17:55:05.923Z,42.10
2019-06-08T17:57:47.277Z,42.40
2019-06-08T18:00:06.871Z,42.80
2019-06-08T18:02:39.833Z,43.10
2019-06-08T18:05:07.148Z,43.20
2019-06-08T18:07:39.967Z,43.60
2019-06-08T18:10:07.798Z,44.50
2019-06-08T18:12:40.720Z,44.90
2019-06-08T18:15:07.755Z,44.90
2019-06-08T18:17:39.159Z,45.60
2019-06-08T18:20:09.519Z,46.00
2019-06-08T18:22:41.474Z,45.90
2019-06-08T18:25:09.527Z,46.60
2019-06-08T18:27:40.709Z,46.90
2019-06-08T18:30:11.734Z,47.20
2019-06-08T18:32:40.937Z,47.70
2019-06-08T18:35:10.671Z,48.10
2019-06-08T18:37:41.335Z,48.60
2019-06-08T18:40:10.654Z,49.00
2019-06-08T18:42:41.496Z,49.30
2019-06-08T18:45:10.585Z,50.00
2019-06-08T18:47:40.839Z,49.60
2019-06-08T18:50:10.173Z,49.80
2019-06-08T18:52:41.864Z,50.50
2019-06-08T18:55:10.086Z,50.80
2019-06-08T18:57:41.014Z,50.90
2019-06-08T19:00:11.675Z,51.00
2019-06-08T19:02:43.259Z,50.90
2019-06-08T19:05:10.898Z,51.20
2019-06-08T19:07:41.170Z,51.10
2019-06-08T19:10:10.683Z,51.70
2019-06-08T19:12:41.476Z,51.70
2019-06-08T19:15:11.467Z,51.80
2019-06-08T19:17:47.129Z,51.90
2019-06-08T19:20:11.659Z,51.80
2019-06-08T19:22:43.806Z,51.90
2019-06-08T19:25:11.255Z,52.20
2019-06-08T19:27:43.035Z,52.10
2019-06-08T19:30:10.851Z,52.00
2019-06-08T19:32:41.859Z,52.40
2019-06-08T19:35:10.428Z,52.30
2019-06-08T19:37:39.694Z,52.30
2019-06-08T19:40:08.695Z,52.20
2019-06-08T19:42:47.418Z,52.60
2019-06-08T19:45:08.862Z,52.70
2019-06-08T19:47:38.481Z,52.30
2019-06-08T19:50:07.884Z,52.10
2019-06-08T19:52:41.054Z,52.40
2019-06-08T19:55:08.033Z,52.50
2019-06-08T19:57:37.531Z,52.10
2019-06-08T20:00:07.487Z,52.10
2019-06-08T20:02:36.945Z,52.30
2019-06-08T20:05:07.632Z,52.10
2019-06-08T20:07:37.883Z,52.60
2019-06-08T20:10:07.694Z,52.60
2019-06-08T20:12:37.258Z,52.70
2019-06-08T20:15:08.532Z,52.80
2019-06-08T20:17:37.313Z,52.70
2019-06-08T20:20:10.256Z,52.80
2019-06-08T20:22:37.915Z,52.90
2019-06-08T20:25:10.454Z,52.60
2019-06-08T20:27:38.238Z,52.80
2019-06-08T20:30:09.627Z,52.60
2019-06-08T20:32:37.975Z,52.40
2019-06-08T20:35:07.986Z,52.20
2019-06-08T20:37:38.116Z,52.20
2019-06-08T20:40:13.539Z,52.10
2019-06-08T20:42:38.359Z,52.80
2019-06-08T20:45:08.182Z,52.80
2019-06-08T20:47:39.070Z,52.30
2019-06-08T20:50:07.959Z,52.70
2019-06-08T20:52:37.765Z,53.40
2019-06-08T20:55:07.954Z,53.90
2019-06-08T20:57:37.017Z,53.70
2019-06-08T21:00:09.106Z,52.40
2019-06-08T21:02:37.404Z,52.30
2019-06-08T21:05:07.829Z,51.50
2019-06-08T21:07:37.301Z,51.90
2019-06-08T21:10:08.538Z,51.80
2019-06-08T21:12:37.961Z,51.70
2019-06-08T21:15:07.463Z,51.10
2019-06-08T21:17:38.379Z,50.00
2019-06-08T21:20:08.596Z,50.00
2019-06-08T21:22:37.843Z,49.70
2019-06-08T21:25:08.602Z,49.90
2019-06-08T21:27:38.507Z,49.70
2019-06-08T21:30:19.872Z,50.00
2019-06-08T21:32:38.604Z,50.00
2019-06-08T21:35:07.759Z,50.70
2019-06-08T21:37:37.671Z,50.70
2019-06-08T21:40:08.507Z,51.30
2019-06-08T21:42:37.826Z,51.80
2019-06-08T21:45:09.512Z,51.60
2019-06-08T21:47:37.846Z,51.90
2019-06-08T21:50:08.061Z,51.80
2019-06-08T21:52:37.321Z,51.40
2019-06-08T21:55:07.269Z,51.80
2019-06-08T21:57:37.207Z,51.70
2019-06-08T22:00:26.886Z,51.90
2019-06-08T22:02:39.179Z,52.10
2019-06-08T22:05:08.406Z,52.30
2019-06-08T22:07:37.829Z,52.90
2019-06-08T22:10:07.422Z,53.30
2019-06-08T22:12:40.071Z,53.30
2019-06-08T22:15:07.557Z,53.70
2019-06-08T22:17:38.290Z,53.00
2019-06-08T22:20:08.002Z,52.50
2019-06-08T22:22:37.874Z,52.30
2019-06-08T22:25:08.160Z,52.40
2019-06-08T22:27:38.526Z,52.50
2019-06-08T22:30:15.530Z,52.90
2019-06-08T22:32:40.155Z,53.40
2019-06-08T22:35:09.136Z,53.30
2019-06-08T22:37:38.544Z,54.10
2019-06-08T22:40:08.265Z,54.30
2019-06-08T22:42:37.777Z,54.40
2019-06-08T22:45:08.288Z,54.50
2019-06-08T22:47:38.828Z,54.70
2019-06-08T22:50:08.078Z,54.90
2019-06-08T22:52:37.678Z,55.20
2019-06-08T22:55:10.604Z,55.20
2019-06-08T22:57:37.857Z,55.30
2019-06-08T23:00:16.529Z,55.20
2019-06-08T23:02:39.064Z,55.40
2019-06-08T23:05:09.029Z,56.00
2019-06-08T23:07:38.321Z,55.70
2019-06-08T23:10:08.993Z,55.30
2019-06-08T23:12:38.400Z,55.20
2019-06-08T23:15:07.968Z,55.60
2019-06-08T23:17:38.594Z,55.50
2019-06-08T23:20:08.645Z,55.60
2019-06-08T23:22:38.623Z,56.30
2019-06-08T23:25:09.466Z,55.80
2019-06-08T23:27:38.527Z,55.70
2019-06-08T23:30:10.087Z,55.60
2019-06-08T23:32:38.899Z,55.80
2019-06-08T23:35:09.515Z,55.90
2019-06-08T23:37:38.784Z,56.00
2019-06-08T23:40:07.828Z,55.80
2019-06-08T23:42:38.390Z,56.30
2019-06-08T23:45:10.369Z,56.40
2019-06-08T23:47:38.683Z,56.50
2019-06-08T23:50:11.241Z,56.40
2019-06-08T23:52:38.743Z,56.60
2019-06-08T23:55:10.597Z,56.60
2019-06-08T23:57:38.690Z,56.70
